Portada
METAR-TAF:

METAR-TAF

Aeropuertos :

Base Aérea de Getafe

Madrid-Getafe, España

latitud: 40-18N, longitud: 003-43W, altitud: 620 m

Observación

El informe se hizo hace 10 horas y 9 minutos, a las 18:00 UTC
Viento calma
Temperatura 13°C
Humedad 82%
Presión 1012 hPa
Visibilidad 10 km o más
Escasas nubes a una altura de 1800 ft
Cielo nuboso a una altura de 3400 ft

METAR: LEGT 151800Z 00000KT 9999 FEW018 BKN034 13/10 Q1012

Hora: 06:09 (04:09 UTC)

Pronóstico

El informe se hizo hace 11 horas y 9 minutos, a las 17:00 UTC
Pronóstico válido del 15 a las 18 UTC al 16 a las 03 UTC
Viento 5 kt con dirección variable
Visibilidad 10 km o más
Cielo nuboso a una altura de 2000 ft
Probabilidad 40% :
Temporalmente
del 15 a las 18 UTC al 16 a las 03 UTC
Visibilidad: 3000 m
Cielo nuboso a una altura de 1000 ft
llovizna, neblina

TAF: LEGT 151700Z 1518/1603 VRB05KT 9999 BKN020 PROB40 TEMPO 1518/1603 3000 DZ BR BKN010

Observaciones y pronósticos meteorológicos de más de 4000 aeropuertos (mensajes METAR y TAF).

Los puntos amarillos y rojos representan las estaciones disponibles.

Ponga el ratón en el punto deseado para ver el nombre de la estación.

Haga clic para ver las observaciones y los pronósticos meteorológicos.

Para cambiar el mapa : haga clic en los botones verdes con una cruz de color negro para hacer un zoom, en el botón verde con un guión para alejar o en las flechas verdes para mapas adyacentes.


METAR-TAF: